createdAt,value
2022-09-26T00:02:24.309Z,48.07
2022-09-26T00:04:59.331Z,48.67
2022-09-26T00:07:36.539Z,47.27
2022-09-26T00:10:12.150Z,46.33
2022-09-26T00:12:47.055Z,45.50
2022-09-26T00:15:21.920Z,44.83
2022-09-26T00:17:56.517Z,45.90
2022-09-26T00:20:31.591Z,45.40
2022-09-26T00:23:08.633Z,50.60
2022-09-26T00:25:49.387Z,58.10
2022-09-26T00:28:24.737Z,50.87
2022-09-26T00:30:59.983Z,51.87
2022-09-26T00:33:35.129Z,54.93
2022-09-26T00:36:11.413Z,52.70
2022-09-26T00:38:48.462Z,57.80
2022-09-26T00:41:23.008Z,50.83
2022-09-26T00:43:58.904Z,56.73
2022-09-26T00:46:40.098Z,60.33
2022-09-26T00:49:23.090Z,59.37
2022-09-26T00:52:01.210Z,58.30
2022-09-26T00:54:42.623Z,57.87
2022-09-26T00:57:20.428Z,62.97
2022-09-26T00:59:59.952Z,62.83
2022-09-26T01:02:34.956Z,56.93
2022-09-26T01:05:14.618Z,54.77
2022-09-26T01:07:56.059Z,60.63
2022-09-26T01:10:36.623Z,60.00
2022-09-26T01:13:13.132Z,59.73
2022-09-26T01:15:52.098Z,54.40
2022-09-26T01:18:27.013Z,57.50
2022-09-26T01:21:11.120Z,57.40
2022-09-26T01:24:18.465Z,63.20
2022-09-26T01:27:20.265Z,65.67
2022-09-26T01:30:17.413Z,64.83
2022-09-26T01:33:18.279Z,66.53
2022-09-26T01:36:09.155Z,62.00
2022-09-26T01:38:54.930Z,59.60
2022-09-26T01:41:48.494Z,58.90
2022-09-26T01:44:35.327Z,58.40
2022-09-26T01:47:18.474Z,60.50
2022-09-26T01:49:59.402Z,54.07
2022-09-26T01:52:40.439Z,59.60
2022-09-26T01:55:18.718Z,57.77
2022-09-26T01:57:57.201Z,54.03
2022-09-26T02:00:33.537Z,55.20
2022-09-26T02:03:14.413Z,64.33
2022-09-26T02:05:52.821Z,60.20
2022-09-26T02:08:32.313Z,58.43
2022-09-26T02:11:13.683Z,57.37
2022-09-26T02:13:57.140Z,57.17
2022-09-26T02:28:47.734Z,60.17
2022-09-26T02:31:31.198Z,64.43
2022-09-26T02:48:45.579Z,67.53
2022-09-26T02:51:40.656Z,62.07
2022-09-26T02:54:26.215Z,65.80
2022-09-26T02:57:22.283Z,65.83
2022-09-26T03:00:06.903Z,63.67
2022-09-26T03:02:47.443Z,64.87
2022-09-26T03:05:28.087Z,67.63
2022-09-26T03:08:13.924Z,67.73
2022-09-26T03:10:51.718Z,64.77
2022-09-26T03:13:31.290Z,65.90
2022-09-26T03:16:15.889Z,68.80
2022-09-26T03:19:05.641Z,68.20
2022-09-26T03:21:43.520Z,63.77
2022-09-26T03:24:21.852Z,67.40
2022-09-26T03:27:06.480Z,70.90
2022-09-26T03:29:46.725Z,69.93
2022-09-26T03:32:27.725Z,71.67
2022-09-26T03:35:04.382Z,72.97
2022-09-26T03:37:42.781Z,74.90
2022-09-26T03:40:18.385Z,72.83
2022-09-26T03:43:20.438Z,70.17
2022-09-26T03:46:01.298Z,71.30
2022-09-26T03:48:45.742Z,76.20
2022-09-26T03:51:23.585Z,70.13
2022-09-26T03:54:02.787Z,72.63
2022-09-26T03:56:38.300Z,70.30
2022-09-26T03:59:25.832Z,71.63
2022-09-26T04:02:07.431Z,76.43
2022-09-26T04:04:56.745Z,75.13
2022-09-26T04:07:36.010Z,72.47
2022-09-26T04:10:15.679Z,64.37
2022-09-26T04:13:03.201Z,69.23
2022-09-26T04:15:44.731Z,65.47
2022-09-26T04:18:28.950Z,66.77
2022-09-26T04:21:15.717Z,67.30
2022-09-26T04:24:07.843Z,62.77
2022-09-26T04:26:52.339Z,63.23
2022-09-26T04:29:35.317Z,66.70
2022-09-26T04:32:34.369Z,69.87
2022-09-26T04:35:35.260Z,70.50
2022-09-26T04:38:15.368Z,66.23
2022-09-26T04:40:56.604Z,64.70
2022-09-26T04:43:35.962Z,60.90
2022-09-26T04:46:21.693Z,60.63
2022-09-26T04:49:18.187Z,56.63
2022-09-26T04:52:08.824Z,61.37
2022-09-26T04:54:58.049Z,65.77
2022-09-26T04:57:37.767Z,61.60
2022-09-26T05:00:28.736Z,60.57
2022-09-26T05:03:14.389Z,64.73
2022-09-26T05:06:03.003Z,61.23
2022-09-26T05:08:39.560Z,61.93
2022-09-26T05:11:18.473Z,65.90
2022-09-26T05:13:56.078Z,72.33
2022-09-26T05:16:38.372Z,65.50
2022-09-26T05:19:20.438Z,75.10
2022-09-26T05:22:19.395Z,76.80
2022-09-26T05:25:15.192Z,77.33
2022-09-26T05:27:55.753Z,77.00
2022-09-26T05:30:35.978Z,74.37
2022-09-26T05:33:21.322Z,78.70
2022-09-26T05:36:05.184Z,79.63
2022-09-26T05:38:45.898Z,77.13
2022-09-26T05:41:24.340Z,77.37
2022-09-26T05:44:01.633Z,71.37
2022-09-26T05:46:53.789Z,78.10
2022-09-26T05:49:34.371Z,85.23
2022-09-26T05:52:24.204Z,78.87
2022-09-26T05:55:07.176Z,83.47
2022-09-26T05:58:07.115Z,80.73
2022-09-26T06:01:14.999Z,83.87
2022-09-26T06:03:57.713Z,88.50
2022-09-26T06:06:38.014Z,81.43
2022-09-26T06:09:22.045Z,80.13
2022-09-26T06:12:32.937Z,71.30
2022-09-26T06:15:16.976Z,82.00
2022-09-26T06:18:11.767Z,72.63
2022-09-26T06:20:56.608Z,78.03
2022-09-26T06:23:41.798Z,74.87
2022-09-26T06:26:24.185Z,75.60
2022-09-26T06:29:06.194Z,77.33
2022-09-26T06:31:48.843Z,74.93
2022-09-26T06:34:48.929Z,76.60
2022-09-26T06:37:49.197Z,75.20
2022-09-26T06:40:41.925Z,76.70
2022-09-26T06:43:18.637Z,74.67
2022-09-26T06:46:22.612Z,73.97
2022-09-26T06:49:14.590Z,83.03
2022-09-26T06:51:56.854Z,77.50
2022-09-26T06:54:36.235Z,84.30
2022-09-26T06:57:36.051Z,83.37
2022-09-26T07:00:29.354Z,93.70
2022-09-26T07:03:32.181Z,73.03
2022-09-26T07:06:31.835Z,75.87
2022-09-26T07:09:12.537Z,79.23
2022-09-26T07:12:17.656Z,80.30
2022-09-26T07:14:57.789Z,77.37
2022-09-26T07:17:37.561Z,83.73
2022-09-26T07:20:41.700Z,78.33
2022-09-26T07:23:48.304Z,79.03
2022-09-26T07:26:27.748Z,80.77
2022-09-26T07:29:14.978Z,76.23
2022-09-26T07:31:55.214Z,77.57
2022-09-26T07:34:53.832Z,74.73
2022-09-26T07:37:35.437Z,76.63
2022-09-26T07:40:14.510Z,78.10
2022-09-26T07:43:15.258Z,78.40
2022-09-26T07:46:07.467Z,80.43
2022-09-26T07:48:58.841Z,90.50
2022-09-26T07:51:52.990Z,92.50
2022-09-26T07:54:32.810Z,86.33
2022-09-26T07:57:40.167Z,88.37
2022-09-26T08:00:42.883Z,87.23
2022-09-26T08:03:47.435Z,91.07
2022-09-26T08:06:40.868Z,88.10
2022-09-26T08:09:21.636Z,93.73
2022-09-26T08:12:21.278Z,91.33
2022-09-26T08:15:16.127Z,92.83
2022-09-26T08:18:03.552Z,97.37
2022-09-26T08:20:39.475Z,98.97
2022-09-26T08:23:17.910Z,95.47
2022-09-26T08:26:03.276Z,92.03
2022-09-26T08:29:02.100Z,95.07
2022-09-26T08:31:39.996Z,90.40
2022-09-26T08:34:19.285Z,94.97
2022-09-26T08:37:16.941Z,86.03
2022-09-26T08:40:12.355Z,88.70
2022-09-26T08:43:19.867Z,88.53
2022-09-26T08:46:47.247Z,85.07
2022-09-26T08:50:03.234Z,84.17
2022-09-26T08:52:57.088Z,81.47
2022-09-26T08:55:37.738Z,79.77
2022-09-26T08:58:29.054Z,79.17
2022-09-26T09:01:17.270Z,80.90
2022-09-26T09:04:39.110Z,79.43
2022-09-26T09:07:26.636Z,88.97
2022-09-26T09:10:10.208Z,72.50
2022-09-26T09:13:25.056Z,75.83
2022-09-26T09:16:33.584Z,76.80
2022-09-26T09:19:39.080Z,77.27
2022-09-26T09:22:52.552Z,75.47
2022-09-26T09:25:40.438Z,75.13
2022-09-26T09:28:35.822Z,72.97
2022-09-26T09:31:29.768Z,78.43
2022-09-26T09:34:55.678Z,79.97
2022-09-26T09:38:11.779Z,81.43
2022-09-26T09:41:06.235Z,85.37
2022-09-26T09:43:47.491Z,86.13
2022-09-26T09:46:33.236Z,85.00
2022-09-26T09:49:24.625Z,80.40
2022-09-26T09:52:22.366Z,90.63
2022-09-26T09:55:12.885Z,80.00
2022-09-26T09:58:05.966Z,86.10
2022-09-26T10:00:52.972Z,83.13
2022-09-26T10:03:44.675Z,87.20
2022-09-26T10:06:44.164Z,76.83
2022-09-26T10:09:38.418Z,73.27
2022-09-26T10:12:40.595Z,76.87
2022-09-26T10:15:38.184Z,79.27
2022-09-26T10:18:30.344Z,71.33
2022-09-26T10:21:19.186Z,72.13
2022-09-26T10:23:59.436Z,76.73
2022-09-26T10:26:52.605Z,78.57
2022-09-26T10:29:43.856Z,76.30
2022-09-26T10:32:24.599Z,73.53
2022-09-26T10:35:22.256Z,75.33
2022-09-26T10:38:21.173Z,71.57
2022-09-26T10:41:05.412Z,63.47
2022-09-26T10:43:59.036Z,74.07
2022-09-26T10:46:58.844Z,75.10
2022-09-26T10:49:47.899Z,79.00
2022-09-26T10:52:49.682Z,78.07
2022-09-26T10:55:34.328Z,66.80
2022-09-26T10:58:27.666Z,72.80
2022-09-26T11:01:10.401Z,79.27
2022-09-26T11:03:51.150Z,72.57
2022-09-26T11:06:41.989Z,65.60
2022-09-26T11:09:45.931Z,71.90
2022-09-26T11:13:11.369Z,72.60
2022-09-26T11:16:08.377Z,71.50
2022-09-26T11:19:04.989Z,79.47
2022-09-26T11:21:50.684Z,65.63
2022-09-26T11:24:33.108Z,70.87
2022-09-26T11:27:26.056Z,67.47
2022-09-26T11:30:11.482Z,69.03
2022-09-26T11:32:56.794Z,64.87
2022-09-26T11:36:02.151Z,61.10
2022-09-26T11:38:49.461Z,61.73
2022-09-26T11:41:43.652Z,59.33
2022-09-26T11:44:45.918Z,61.10
2022-09-26T11:48:00.594Z,68.47
2022-09-26T11:51:15.572Z,66.20
2022-09-26T11:54:08.164Z,69.90
2022-09-26T11:56:59.375Z,69.60
2022-09-26T12:00:07.652Z,67.33
2022-09-26T12:03:17.883Z,67.90
2022-09-26T12:06:03.293Z,71.17
2022-09-26T12:09:04.224Z,59.87
2022-09-26T12:11:56.488Z,56.70
2022-09-26T12:14:47.937Z,57.23
2022-09-26T12:17:38.587Z,59.70
2022-09-26T12:20:49.762Z,51.67
2022-09-26T12:23:34.706Z,58.23
2022-09-26T12:26:26.765Z,62.00
2022-09-26T12:29:35.672Z,58.10
2022-09-26T12:32:29.952Z,65.13
2022-09-26T12:35:32.734Z,64.17
2022-09-26T12:38:38.262Z,60.80
2022-09-26T12:41:49.323Z,63.80
2022-09-26T12:44:50.808Z,60.90
2022-09-26T12:47:48.383Z,55.53
2022-09-26T12:50:49.078Z,57.70
2022-09-26T12:53:55.197Z,58.60
2022-09-26T12:56:52.988Z,60.67
2022-09-26T13:00:11.948Z,61.73
2022-09-26T13:03:23.656Z,62.70
2022-09-26T13:06:32.521Z,62.80
2022-09-26T13:09:24.761Z,65.50
2022-09-26T13:12:20.349Z,64.63
2022-09-26T13:15:32.995Z,63.70
2022-09-26T13:18:26.671Z,68.87
2022-09-26T13:21:11.519Z,69.47
2022-09-26T13:23:59.376Z,68.00
2022-09-26T13:26:46.717Z,68.17
2022-09-26T13:29:32.597Z,71.93
2022-09-26T13:32:35.336Z,76.10
2022-09-26T13:35:24.474Z,79.27
2022-09-26T13:38:45.199Z,79.47
2022-09-26T13:41:57.446Z,77.67
2022-09-26T13:44:50.581Z,81.00
2022-09-26T13:47:55.789Z,80.17
2022-09-26T13:50:44.045Z,80.17
2022-09-26T13:53:33.343Z,68.20
2022-09-26T13:56:47.459Z,77.33
2022-09-26T13:59:40.055Z,70.40
2022-09-26T14:02:52.065Z,79.07
2022-09-26T14:05:55.130Z,74.23
2022-09-26T14:08:55.053Z,76.03
2022-09-26T14:11:52.886Z,74.13
2022-09-26T14:14:51.130Z,70.60
2022-09-26T14:18:19.702Z,67.93
2022-09-26T14:21:29.812Z,70.33
2022-09-26T14:24:45.486Z,64.87
2022-09-26T14:27:52.127Z,60.23
2022-09-26T14:31:32.862Z,68.37
2022-09-26T14:34:30.239Z,67.20
2022-09-26T14:38:11.356Z,58.60
2022-09-26T14:41:05.902Z,64.57
2022-09-26T14:43:48.320Z,62.30
2022-09-26T14:46:44.545Z,53.17
2022-09-26T14:49:36.711Z,48.03
2022-09-26T14:52:41.984Z,55.63
2022-09-26T14:55:25.515Z,57.53
2022-09-26T14:58:46.615Z,60.97
2022-09-26T15:01:36.209Z,51.57
2022-09-26T15:04:25.217Z,52.07
2022-09-26T15:07:10.554Z,50.17
2022-09-26T15:10:10.979Z,56.03
2022-09-26T15:13:04.428Z,52.93
2022-09-26T15:15:55.681Z,51.33
2022-09-26T15:18:41.176Z,46.40
2022-09-26T15:21:36.793Z,49.77
2022-09-26T15:24:36.949Z,49.77
2022-09-26T15:27:31.020Z,48.20
2022-09-26T15:30:24.037Z,49.23
2022-09-26T15:33:24.908Z,47.13
2022-09-26T15:36:10.996Z,51.53
2022-09-26T15:38:52.520Z,48.70
2022-09-26T15:41:52.344Z,50.67
2022-09-26T15:44:33.094Z,46.73
2022-09-26T15:47:43.558Z,50.97
2022-09-26T15:50:26.867Z,46.57
2022-09-26T15:53:06.488Z,47.20
2022-09-26T15:56:00.203Z,47.70
2022-09-26T15:58:55.336Z,47.70
2022-09-26T16:01:43.777Z,43.53
2022-09-26T16:04:32.913Z,48.43
2022-09-26T16:07:24.100Z,52.60
2022-09-26T16:10:08.816Z,50.53
2022-09-26T16:12:50.144Z,53.10
2022-09-26T16:15:32.930Z,53.50
2022-09-26T16:18:45.524Z,55.07
2022-09-26T16:21:29.369Z,59.27
2022-09-26T16:24:30.897Z,56.60
2022-09-26T16:27:09.103Z,64.63
2022-09-26T16:29:51.593Z,59.67
2022-09-26T16:32:38.880Z,60.67
2022-09-26T16:35:40.172Z,61.80
2022-09-26T16:38:35.420Z,66.23
2022-09-26T16:41:42.060Z,65.83
2022-09-26T16:44:34.863Z,67.33
2022-09-26T16:47:45.949Z,69.33
2022-09-26T16:50:38.107Z,66.53
2022-09-26T16:53:18.724Z,69.07
2022-09-26T16:55:56.714Z,77.20
2022-09-26T16:58:40.827Z,80.77
2022-09-26T17:01:33.298Z,80.77
2022-09-26T17:04:26.213Z,75.53
2022-09-26T17:07:09.573Z,68.90
2022-09-26T17:09:49.648Z,75.80
2022-09-26T17:12:30.602Z,77.27
2022-09-26T17:15:13.904Z,78.53
2022-09-26T17:17:55.591Z,75.97
2022-09-26T17:20:33.168Z,73.00
2022-09-26T17:23:39.535Z,74.33
2022-09-26T17:26:27.787Z,78.33
2022-09-26T17:29:05.759Z,72.10
2022-09-26T17:31:43.743Z,65.20
2022-09-26T17:34:27.489Z,70.47
2022-09-26T17:37:06.258Z,78.37
2022-09-26T17:39:48.193Z,72.87
2022-09-26T17:42:34.681Z,69.37
2022-09-26T17:45:20.814Z,70.27
2022-09-26T17:47:57.599Z,73.77
2022-09-26T17:50:37.151Z,71.80
2022-09-26T17:53:18.217Z,68.40
2022-09-26T17:55:58.922Z,72.37
2022-09-26T17:58:39.598Z,62.90
2022-09-26T18:01:23.582Z,63.97
2022-09-26T18:04:02.306Z,59.87
2022-09-26T18:06:41.457Z,64.43
2022-09-26T18:09:19.715Z,69.70
2022-09-26T18:12:04.514Z,63.90
2022-09-26T18:14:43.026Z,60.07
2022-09-26T18:17:21.167Z,64.33
2022-09-26T18:19:57.015Z,65.20
2022-09-26T18:22:34.523Z,67.87
2022-09-26T18:25:11.859Z,57.57
2022-09-26T18:27:51.941Z,58.20
2022-09-26T18:30:29.929Z,51.47
2022-09-26T18:33:07.532Z,57.83
2022-09-26T18:35:45.931Z,53.67
2022-09-26T18:38:24.477Z,60.63
2022-09-26T18:41:02.909Z,57.30
2022-09-26T18:43:43.672Z,52.90
2022-09-26T18:46:20.009Z,59.03
2022-09-26T18:48:59.647Z,54.57
2022-09-26T18:51:35.189Z,51.03
2022-09-26T18:54:13.741Z,49.47
2022-09-26T18:57:04.499Z,45.90
2022-09-26T18:59:42.340Z,46.37
2022-09-26T19:02:25.981Z,48.40
2022-09-26T19:05:04.019Z,47.90
2022-09-26T19:07:38.628Z,48.37
2022-09-26T19:10:21.248Z,46.80
2022-09-26T19:12:56.830Z,44.43
2022-09-26T19:15:34.086Z,48.93
2022-09-26T19:18:08.936Z,44.07
2022-09-26T19:20:43.797Z,45.37
2022-09-26T19:23:19.339Z,43.03
2022-09-26T19:25:54.667Z,44.57
2022-09-26T19:28:32.463Z,38.20
2022-09-26T19:31:09.888Z,37.43
2022-09-26T19:33:47.789Z,37.63
2022-09-26T19:36:23.937Z,36.50
2022-09-26T19:38:58.627Z,37.43
2022-09-26T19:41:38.918Z,36.43
2022-09-26T19:44:15.842Z,35.80
2022-09-26T19:46:52.596Z,34.17
2022-09-26T19:49:28.725Z,32.67
2022-09-26T19:52:04.504Z,34.03
2022-09-26T19:54:38.625Z,36.50
2022-09-26T19:57:21.810Z,29.97
2022-09-26T19:59:56.295Z,32.00
2022-09-26T20:02:38.277Z,29.10
2022-09-26T20:05:21.469Z,31.57
2022-09-26T20:07:56.343Z,30.33
2022-09-26T20:10:30.611Z,31.13
2022-09-26T20:13:05.115Z,29.80
2022-09-26T20:15:39.587Z,28.60
2022-09-26T20:18:19.819Z,33.57
2022-09-26T20:20:57.450Z,33.20
2022-09-26T20:23:31.734Z,33.40
2022-09-26T20:26:05.741Z,34.03
2022-09-26T20:28:40.405Z,35.27
2022-09-26T20:31:24.080Z,34.47
2022-09-26T20:34:00.456Z,32.50
2022-09-26T20:36:37.212Z,34.50
2022-09-26T20:39:15.476Z,36.13
2022-09-26T20:41:50.303Z,33.93
2022-09-26T20:44:29.117Z,33.30
2022-09-26T20:47:05.798Z,36.80
2022-09-26T20:49:47.831Z,37.57
2022-09-26T20:52:25.535Z,33.57
2022-09-26T20:55:00.510Z,34.27
2022-09-26T20:57:34.188Z,34.87
2022-09-26T21:00:08.975Z,33.83
2022-09-26T21:02:45.750Z,34.60
2022-09-26T21:05:26.514Z,35.33
2022-09-26T21:08:02.747Z,31.50
2022-09-26T21:10:37.577Z,32.10
2022-09-26T21:13:13.065Z,35.73
2022-09-26T21:15:47.678Z,36.53
2022-09-26T21:18:28.071Z,38.87
2022-09-26T21:21:08.022Z,37.30
2022-09-26T21:24:04.337Z,35.03
2022-09-26T21:26:38.336Z,39.37
2022-09-26T21:29:16.778Z,41.23
2022-09-26T21:31:54.860Z,39.77
2022-09-26T21:34:30.972Z,41.20
2022-09-26T21:37:08.221Z,43.20
2022-09-26T21:39:43.187Z,41.20
2022-09-26T21:42:18.205Z,39.40
2022-09-26T21:44:56.791Z,40.43
2022-09-26T21:47:31.496Z,41.20
2022-09-26T21:50:06.151Z,40.73
2022-09-26T21:52:46.296Z,44.30
2022-09-26T21:55:23.851Z,37.10
2022-09-26T21:57:59.462Z,39.83
2022-09-26T22:00:33.270Z,36.37
2022-09-26T22:03:07.978Z,38.10
2022-09-26T22:05:42.162Z,32.73
2022-09-26T22:08:17.760Z,32.03
2022-09-26T22:10:51.976Z,34.60
2022-09-26T22:13:26.144Z,39.07
2022-09-26T22:16:00.258Z,35.60
2022-09-26T22:18:34.432Z,34.40
2022-09-26T22:21:08.755Z,34.20
2022-09-26T22:23:45.344Z,33.23
2022-09-26T22:26:19.678Z,38.67
2022-09-26T22:28:54.300Z,38.20
2022-09-26T22:31:28.493Z,36.93
2022-09-26T22:34:04.261Z,35.57
2022-09-26T22:36:38.812Z,36.53
2022-09-26T22:39:16.150Z,35.63
2022-09-26T22:41:51.803Z,39.43
2022-09-26T22:44:30.199Z,36.37
2022-09-26T22:47:05.416Z,36.90
2022-09-26T22:49:40.433Z,39.63
2022-09-26T22:52:15.756Z,35.67
2022-09-26T22:54:53.220Z,38.07
2022-09-26T22:57:29.255Z,29.70
2022-09-26T23:00:04.471Z,36.60
2022-09-26T23:02:40.043Z,29.70
2022-09-26T23:05:17.462Z,32.43
2022-09-26T23:07:52.141Z,35.40
2022-09-26T23:10:29.320Z,37.27
2022-09-26T23:13:06.831Z,32.73
2022-09-26T23:15:41.697Z,40.53
2022-09-26T23:18:16.150Z,28.83
2022-09-26T23:20:51.461Z,35.73
2022-09-26T23:23:25.277Z,34.97
2022-09-26T23:26:01.912Z,34.70
2022-09-26T23:28:36.721Z,32.43
2022-09-26T23:31:12.662Z,40.23
2022-09-26T23:33:50.658Z,36.97
2022-09-26T23:36:27.138Z,38.23
2022-09-26T23:39:04.260Z,38.90
2022-09-26T23:41:41.796Z,39.90
2022-09-26T23:44:17.268Z,39.30
2022-09-26T23:46:52.626Z,36.23
2022-09-26T23:49:28.150Z,37.57
2022-09-26T23:52:04.092Z,36.50
2022-09-26T23:54:41.041Z,37.77
2022-09-26T23:57:18.750Z,39.87
2022-09-26T23:59:54.046Z,45.97
